createdAt,value
2023-03-06T00:00:49.761Z,63.68
2023-03-06T00:03:19.962Z,63.68
2023-03-06T00:05:47.463Z,63.87
2023-03-06T00:08:14.457Z,63.98
2023-03-06T00:10:41.016Z,64.04
2023-03-06T00:13:14.421Z,63.92
2023-03-06T00:15:41.905Z,63.86
2023-03-06T00:18:08.893Z,63.90
2023-03-06T00:20:36.166Z,63.97
2023-03-06T00:23:04.001Z,64.16
2023-03-06T00:25:30.730Z,64.41
2023-03-06T00:27:57.482Z,64.61
2023-03-06T00:30:24.878Z,64.79
2023-03-06T00:32:53.353Z,64.96
2023-03-06T00:35:20.410Z,65.61
2023-03-06T00:37:47.053Z,64.73
2023-03-06T00:40:19.353Z,63.82
2023-03-06T00:42:47.483Z,63.31
2023-03-06T00:45:14.680Z,62.83
2023-03-06T00:47:41.578Z,62.29
2023-03-06T00:50:09.853Z,61.82
2023-03-06T00:52:36.702Z,61.45
2023-03-06T00:55:05.242Z,61.07
2023-03-06T00:57:31.729Z,60.78
2023-03-06T00:59:58.438Z,60.04
2023-03-06T01:02:25.581Z,59.62
2023-03-06T01:04:52.027Z,59.86
2023-03-06T01:07:18.765Z,60.30
2023-03-06T01:09:45.357Z,61.05
2023-03-06T01:12:11.824Z,61.86
2023-03-06T01:14:38.519Z,62.29
2023-03-06T01:17:05.186Z,63.06
2023-03-06T01:19:31.810Z,63.40
2023-03-06T01:21:58.353Z,63.57
2023-03-06T01:24:25.296Z,63.89
2023-03-06T01:26:51.960Z,64.03
2023-03-06T01:29:18.491Z,64.34
2023-03-06T01:31:44.961Z,64.41
2023-03-06T01:34:11.508Z,64.74
2023-03-06T01:36:38.008Z,64.49
2023-03-06T01:39:04.686Z,64.83
2023-03-06T01:41:32.101Z,65.09
2023-03-06T01:43:58.554Z,65.35
2023-03-06T01:46:33.496Z,65.88
2023-03-06T01:49:21.404Z,66.07
2023-03-06T01:51:57.129Z,66.44
2023-03-06T01:54:27.886Z,66.34
2023-03-06T01:57:04.760Z,66.42
2023-03-06T01:59:35.608Z,66.39
2023-03-06T02:02:06.040Z,66.34
2023-03-06T02:04:33.790Z,66.36
2023-03-06T02:07:04.214Z,66.44
2023-03-06T02:09:33.021Z,66.98
2023-03-06T02:12:01.910Z,65.95
2023-03-06T02:14:29.649Z,64.95
2023-03-06T02:16:56.201Z,63.76
2023-03-06T02:19:55.640Z,63.01
2023-03-06T02:22:28.026Z,62.47
2023-03-06T02:25:07.237Z,61.86
2023-03-06T02:27:34.343Z,62.04
2023-03-06T02:30:10.832Z,62.45
2023-03-06T02:32:37.405Z,63.07
2023-03-06T02:35:06.468Z,63.73
2023-03-06T02:37:32.890Z,64.36
2023-03-06T02:40:11.624Z,64.05
2023-03-06T02:42:49.670Z,63.46
2023-03-06T02:45:43.715Z,64.24
2023-03-06T02:48:12.727Z,62.33
2023-03-06T02:50:40.926Z,62.42
2023-03-06T02:53:10.151Z,62.94
2023-03-06T02:55:37.228Z,63.42
2023-03-06T02:58:04.175Z,64.01
2023-03-06T03:00:32.710Z,64.22
2023-03-06T03:03:00.517Z,64.28
2023-03-06T03:05:27.065Z,64.40
2023-03-06T03:07:53.778Z,64.62
2023-03-06T03:10:21.042Z,64.76
2023-03-06T03:12:48.514Z,65.01
2023-03-06T03:15:15.060Z,65.87
2023-03-06T03:17:42.338Z,64.48
2023-03-06T03:20:15.663Z,63.88
2023-03-06T03:22:42.440Z,62.64
2023-03-06T03:25:09.265Z,62.26
2023-03-06T03:27:35.721Z,62.49
2023-03-06T03:30:02.367Z,62.74
2023-03-06T03:32:28.916Z,63.31
2023-03-06T03:34:55.955Z,63.68
2023-03-06T03:37:22.620Z,64.07
2023-03-06T03:39:49.330Z,64.47
2023-03-06T03:42:15.766Z,64.79
2023-03-06T03:44:42.203Z,65.01
2023-03-06T03:47:08.670Z,65.42
2023-03-06T03:49:35.064Z,65.66
2023-03-06T03:52:01.584Z,65.55
2023-03-06T03:54:28.344Z,65.50
2023-03-06T03:56:55.041Z,65.70
2023-03-06T03:59:21.645Z,65.83
2023-03-06T04:01:48.946Z,66.05
2023-03-06T04:04:15.677Z,65.96
2023-03-06T04:06:42.213Z,66.25
2023-03-06T04:09:08.759Z,66.26
2023-03-06T04:11:35.327Z,66.05
2023-03-06T04:14:02.759Z,65.75
2023-03-06T04:16:30.185Z,65.71
2023-03-06T04:18:59.474Z,65.83
2023-03-06T04:21:27.165Z,65.91
2023-03-06T04:23:53.955Z,65.98
2023-03-06T04:26:20.417Z,66.17
2023-03-06T04:28:46.933Z,67.55
2023-03-06T04:31:13.787Z,67.39
2023-03-06T04:33:40.330Z,66.05
2023-03-06T04:36:07.192Z,65.77
2023-03-06T04:38:33.670Z,62.54
2023-03-06T04:41:00.158Z,61.33
2023-03-06T04:43:26.850Z,61.50
2023-03-06T04:45:53.413Z,60.91
2023-03-06T04:48:19.855Z,57.93
2023-03-06T04:50:46.405Z,56.66
2023-03-06T04:53:14.108Z,58.55
2023-03-06T04:55:40.596Z,60.24
2023-03-06T04:58:07.029Z,61.84
2023-03-06T05:00:34.052Z,63.17
2023-03-06T05:03:01.727Z,65.14
2023-03-06T05:05:28.754Z,64.83
2023-03-06T05:07:55.805Z,64.38
2023-03-06T05:10:22.657Z,64.56
2023-03-06T05:12:49.342Z,65.99
2023-03-06T05:15:16.633Z,64.42
2023-03-06T05:17:43.579Z,64.16
2023-03-06T05:20:13.018Z,68.10
2023-03-06T05:22:40.341Z,66.72
2023-03-06T05:25:09.861Z,59.04
2023-03-06T05:27:37.664Z,53.47
2023-03-06T05:30:05.215Z,53.50
2023-03-06T05:32:33.834Z,55.42
2023-03-06T05:35:03.545Z,57.19
2023-03-06T05:37:30.399Z,58.46
2023-03-06T05:39:57.119Z,59.90
2023-03-06T05:42:23.778Z,65.18
2023-03-06T05:44:50.391Z,67.51
2023-03-06T05:47:16.980Z,62.52
2023-03-06T05:49:43.474Z,61.01
2023-03-06T05:52:12.540Z,60.67
2023-03-06T05:54:39.044Z,60.79
2023-03-06T05:57:05.721Z,60.13
2023-03-06T05:59:32.693Z,60.00
2023-03-06T06:02:00.568Z,57.93
2023-03-06T06:04:27.260Z,55.89
2023-03-06T06:06:57.929Z,55.42
2023-03-06T06:09:25.974Z,55.75
2023-03-06T06:12:01.249Z,56.60
2023-03-06T06:14:30.435Z,56.99
2023-03-06T06:16:56.892Z,57.95
2023-03-06T06:19:23.983Z,58.56
2023-03-06T06:21:53.594Z,58.94
2023-03-06T06:24:24.580Z,60.06
2023-03-06T06:26:54.649Z,60.40
2023-03-06T06:29:22.897Z,60.70
2023-03-06T06:31:50.787Z,62.11
2023-03-06T06:34:18.683Z,64.52
2023-03-06T06:36:45.911Z,65.26
2023-03-06T06:39:18.652Z,64.36
2023-03-06T06:41:59.754Z,63.92
2023-03-06T06:44:28.982Z,69.66
2023-03-06T06:49:41.906Z,57.63
2023-03-06T06:52:10.150Z,53.16
2023-03-06T06:54:36.608Z,52.53
2023-03-06T06:57:03.190Z,54.34
2023-03-06T06:59:29.677Z,55.72
2023-03-06T07:01:58.375Z,56.94
2023-03-06T07:04:24.809Z,58.20
2023-03-06T07:06:55.702Z,59.23
2023-03-06T07:09:23.097Z,59.63
2023-03-06T07:11:49.797Z,60.42
2023-03-06T07:14:16.291Z,61.30
2023-03-06T07:16:42.844Z,61.44
2023-03-06T07:19:09.219Z,61.59
2023-03-06T07:21:35.750Z,62.02
2023-03-06T07:24:02.436Z,63.44
2023-03-06T07:26:30.025Z,67.60
2023-03-06T07:28:56.715Z,63.44
2023-03-06T07:31:27.621Z,58.63
2023-03-06T07:33:55.059Z,55.82
2023-03-06T07:36:23.233Z,52.87
2023-03-06T07:38:49.891Z,52.45
2023-03-06T07:41:19.421Z,53.21
2023-03-06T07:43:47.764Z,53.61
2023-03-06T07:46:14.604Z,54.27
2023-03-06T07:48:42.219Z,54.39
2023-03-06T07:51:16.593Z,54.67
2023-03-06T07:53:44.169Z,55.35
2023-03-06T07:56:12.140Z,55.82
2023-03-06T07:58:43.480Z,56.35
2023-03-06T08:01:19.133Z,56.41
2023-03-06T08:03:46.029Z,56.57
2023-03-06T08:06:17.231Z,56.14
2023-03-06T08:08:46.053Z,55.97
2023-03-06T08:11:15.813Z,55.66
2023-03-06T08:13:43.446Z,55.65
2023-03-06T08:16:10.875Z,55.94
2023-03-06T08:18:39.123Z,55.74
2023-03-06T08:21:09.292Z,55.05
2023-03-06T08:23:36.864Z,54.33
2023-03-06T08:26:12.654Z,54.29
2023-03-06T08:28:39.933Z,54.40
2023-03-06T08:31:11.982Z,54.51
2023-03-06T08:33:40.145Z,54.11
2023-03-06T08:36:07.011Z,54.20
2023-03-06T08:38:33.468Z,54.23
2023-03-06T08:41:00.192Z,53.61
2023-03-06T08:43:26.834Z,52.91
2023-03-06T08:45:57.023Z,52.48
2023-03-06T08:48:24.700Z,52.62
2023-03-06T08:50:52.199Z,52.79
2023-03-06T08:53:19.826Z,52.57
2023-03-06T08:55:47.074Z,52.34
2023-03-06T08:58:13.514Z,52.23
2023-03-06T09:00:40.002Z,51.44
2023-03-06T09:03:06.563Z,51.32
2023-03-06T09:05:33.550Z,51.30
2023-03-06T09:08:00.089Z,51.45
2023-03-06T09:10:28.260Z,51.57
2023-03-06T09:12:55.424Z,51.23
2023-03-06T09:15:23.755Z,50.52
2023-03-06T09:17:51.155Z,50.06
2023-03-06T09:20:18.495Z,49.80
2023-03-06T09:22:45.265Z,49.39
2023-03-06T09:25:13.375Z,49.01
2023-03-06T09:27:40.734Z,48.76
2023-03-06T09:30:08.594Z,48.71
2023-03-06T09:32:35.189Z,48.83
2023-03-06T09:35:01.711Z,48.85
2023-03-06T09:37:28.327Z,48.77
2023-03-06T09:39:54.755Z,48.69
2023-03-06T09:42:23.067Z,48.94
2023-03-06T09:45:00.522Z,49.03
2023-03-06T09:47:57.263Z,48.79
2023-03-06T09:50:30.948Z,47.91
2023-03-06T09:53:59.377Z,47.69
2023-03-06T09:56:31.344Z,47.46
2023-03-06T09:59:16.895Z,47.85
2023-03-06T10:01:59.652Z,47.14
2023-03-06T10:04:45.545Z,46.47
2023-03-06T10:07:11.951Z,46.18
2023-03-06T10:09:47.620Z,45.42
2023-03-06T10:12:25.136Z,45.08
2023-03-06T10:14:59.689Z,44.18
2023-03-06T10:17:35.043Z,44.46
2023-03-06T10:20:29.242Z,44.83
2023-03-06T10:23:26.563Z,45.47
2023-03-06T10:26:21.183Z,45.93
2023-03-06T10:29:20.180Z,46.48
2023-03-06T10:32:00.339Z,45.97
2023-03-06T10:34:37.648Z,45.45
2023-03-06T10:37:20.994Z,45.27
2023-03-06T10:40:03.590Z,45.03
2023-03-06T10:42:30.264Z,44.70
2023-03-06T10:45:15.865Z,44.12
2023-03-06T10:47:43.626Z,44.38
2023-03-06T10:50:26.974Z,44.78
2023-03-06T10:53:04.988Z,44.94
2023-03-06T10:55:37.314Z,44.55
2023-03-06T10:58:19.417Z,44.16
2023-03-06T11:00:46.049Z,43.88
2023-03-06T11:03:24.831Z,43.52
2023-03-06T11:06:30.091Z,44.13
2023-03-06T11:09:24.963Z,45.11
2023-03-06T11:11:52.229Z,45.40
2023-03-06T11:14:22.470Z,45.23
2023-03-06T11:16:53.122Z,44.62
2023-03-06T11:19:25.928Z,44.85
2023-03-06T11:22:19.186Z,44.99
2023-03-06T11:24:53.066Z,45.22
2023-03-06T11:27:34.023Z,45.20
2023-03-06T11:30:17.162Z,45.20
2023-03-06T11:33:19.494Z,45.22
2023-03-06T11:35:57.844Z,45.26
2023-03-06T11:38:43.690Z,45.37
2023-03-06T11:41:26.321Z,45.58
2023-03-06T11:44:10.516Z,45.84
2023-03-06T11:46:42.970Z,46.07
2023-03-06T11:49:28.482Z,46.31
2023-03-06T11:52:02.885Z,46.59
2023-03-06T11:54:30.891Z,46.67
2023-03-06T11:57:03.928Z,46.82
2023-03-06T11:59:42.689Z,46.79
2023-03-06T12:02:43.531Z,46.89
2023-03-06T12:05:33.580Z,46.79
2023-03-06T12:08:57.914Z,46.78
2023-03-06T12:11:45.991Z,46.25
2023-03-06T12:15:09.809Z,45.48
2023-03-06T12:18:11.523Z,45.06
2023-03-06T12:21:01.899Z,44.80
2023-03-06T12:24:13.235Z,44.67
2023-03-06T12:26:56.684Z,44.80
2023-03-06T12:29:41.327Z,45.06
2023-03-06T12:32:26.744Z,45.23
2023-03-06T12:35:24.778Z,45.36
2023-03-06T12:38:29.072Z,45.62
2023-03-06T12:41:14.614Z,45.78
2023-03-06T12:44:08.477Z,45.56
2023-03-06T12:46:48.979Z,45.61
2023-03-06T12:49:32.344Z,45.60
2023-03-06T12:52:03.771Z,45.54
2023-03-06T12:54:38.097Z,45.53
2023-03-06T12:57:08.660Z,45.81
2023-03-06T12:59:47.242Z,46.00
2023-03-06T13:02:39.946Z,45.86
2023-03-06T13:05:34.065Z,45.84
2023-03-06T13:08:50.376Z,45.77
2023-03-06T13:11:57.274Z,45.77
2023-03-06T13:14:54.654Z,45.86
2023-03-06T13:17:37.889Z,45.88
2023-03-06T13:20:13.363Z,45.57
2023-03-06T13:22:46.038Z,45.39
2023-03-06T13:25:18.633Z,45.12
2023-03-06T13:27:46.862Z,44.40
2023-03-06T13:30:26.564Z,43.89
2023-03-06T13:32:55.570Z,44.13
2023-03-06T13:35:31.519Z,44.01
2023-03-06T13:38:00.358Z,43.63
2023-03-06T13:40:30.380Z,43.41
2023-03-06T13:43:21.170Z,43.50
2023-03-06T13:45:49.476Z,43.50
2023-03-06T13:48:44.170Z,43.29
2023-03-06T13:51:27.818Z,43.41
2023-03-06T13:54:32.002Z,43.09
2023-03-06T13:57:45.660Z,43.36
2023-03-06T14:01:07.767Z,43.26
2023-03-06T14:04:08.181Z,43.28
2023-03-06T14:06:34.786Z,44.06
2023-03-06T14:09:06.491Z,45.88
2023-03-06T14:11:36.926Z,46.22
2023-03-06T14:14:06.876Z,46.69
2023-03-06T14:16:49.879Z,47.24
2023-03-06T14:19:19.107Z,47.39
2023-03-06T14:21:54.932Z,47.82
2023-03-06T14:24:40.644Z,47.89
2023-03-06T14:27:17.030Z,48.42
2023-03-06T14:29:45.915Z,48.02
2023-03-06T14:32:16.481Z,48.22
2023-03-06T14:34:46.363Z,48.61
2023-03-06T14:37:36.107Z,49.11
2023-03-06T14:40:10.707Z,49.05
2023-03-06T14:42:37.182Z,49.29
2023-03-06T14:45:18.436Z,49.52
2023-03-06T14:47:53.107Z,49.65
2023-03-06T14:50:30.062Z,49.79
2023-03-06T14:53:03.631Z,49.89
2023-03-06T14:55:35.207Z,50.05
2023-03-06T14:58:11.971Z,50.10
2023-03-06T15:00:44.183Z,50.91
2023-03-06T15:03:26.190Z,51.26
2023-03-06T15:05:54.749Z,56.16
2023-03-06T15:08:30.613Z,55.70
2023-03-06T15:11:03.745Z,56.93
2023-03-06T15:13:33.573Z,58.39
2023-03-06T15:16:06.158Z,59.13
2023-03-06T15:18:42.084Z,60.17
2023-03-06T15:21:21.067Z,61.14
2023-03-06T15:23:50.907Z,67.61
2023-03-06T15:26:29.016Z,66.91
2023-03-06T15:29:18.994Z,58.73
2023-03-06T15:31:46.199Z,55.85
2023-03-06T15:34:17.934Z,56.20
2023-03-06T15:36:53.560Z,56.60
2023-03-06T15:39:40.877Z,57.40
2023-03-06T15:42:22.997Z,58.66
2023-03-06T15:44:57.100Z,60.55
2023-03-06T15:47:24.163Z,66.88
2023-03-06T15:49:52.529Z,67.91
2023-03-06T15:52:21.333Z,60.17
2023-03-06T15:54:48.318Z,54.92
2023-03-06T15:57:30.198Z,53.13
2023-03-06T15:59:59.961Z,54.26
2023-03-06T16:02:27.007Z,54.67
2023-03-06T16:04:53.841Z,54.52
2023-03-06T16:07:20.726Z,54.72
2023-03-06T16:09:47.944Z,55.08
2023-03-06T16:12:18.649Z,56.37
2023-03-06T16:14:47.424Z,56.98
2023-03-06T16:17:15.433Z,58.13
2023-03-06T16:19:42.869Z,58.87
2023-03-06T16:22:10.053Z,59.76
2023-03-06T16:24:37.099Z,65.59
2023-03-06T16:27:06.248Z,67.08
2023-03-06T16:29:32.941Z,65.21
2023-03-06T16:32:01.020Z,62.94
2023-03-06T16:34:27.498Z,59.89
2023-03-06T16:36:54.152Z,57.72
2023-03-06T16:39:23.644Z,56.70
2023-03-06T16:41:51.221Z,57.00
2023-03-06T16:44:19.032Z,57.80
2023-03-06T16:46:48.955Z,58.47
2023-03-06T16:49:21.122Z,58.86
2023-03-06T16:51:49.185Z,59.39
2023-03-06T16:54:15.705Z,60.10
2023-03-06T16:56:42.863Z,62.72
2023-03-06T16:59:10.840Z,66.66
2023-03-06T17:01:43.220Z,71.53
2023-03-06T17:04:11.497Z,65.41
2023-03-06T17:06:38.681Z,60.32
2023-03-06T17:09:05.323Z,56.30
2023-03-06T17:11:31.899Z,55.32
2023-03-06T17:13:58.996Z,55.88
2023-03-06T17:16:25.638Z,57.34
2023-03-06T17:18:52.087Z,58.22
2023-03-06T17:21:19.213Z,59.60
2023-03-06T17:23:46.053Z,60.79
2023-03-06T17:26:19.763Z,61.40
2023-03-06T17:28:46.769Z,62.61
2023-03-06T17:31:19.701Z,63.41
2023-03-06T17:34:07.318Z,63.58
2023-03-06T17:36:34.221Z,63.90
2023-03-06T17:39:02.464Z,64.40
2023-03-06T17:41:29.446Z,64.75
2023-03-06T17:43:57.568Z,65.06
2023-03-06T17:46:27.569Z,66.69
2023-03-06T17:48:57.583Z,68.23
2023-03-06T17:51:30.001Z,68.22
2023-03-06T17:53:56.810Z,68.75
2023-03-06T17:56:23.749Z,69.42
2023-03-06T17:58:50.495Z,69.86
2023-03-06T18:01:21.827Z,69.77
2023-03-06T18:03:50.365Z,70.10
2023-03-06T18:06:38.090Z,70.03
2023-03-06T18:09:09.600Z,69.90
2023-03-06T18:11:39.521Z,69.72
2023-03-06T18:14:12.613Z,68.94
2023-03-06T18:16:47.583Z,68.98
2023-03-06T18:19:15.808Z,70.77
2023-03-06T18:21:46.928Z,69.42
2023-03-06T18:24:13.710Z,68.63
2023-03-06T18:26:41.909Z,68.75
2023-03-06T18:29:08.910Z,67.64
2023-03-06T18:31:40.768Z,67.17
2023-03-06T18:34:14.153Z,66.94
2023-03-06T18:36:46.545Z,66.67
2023-03-06T18:39:15.444Z,66.22
2023-03-06T18:41:42.362Z,65.96
2023-03-06T18:44:15.892Z,67.25
2023-03-06T18:46:45.546Z,68.18
2023-03-06T18:49:13.506Z,66.54
2023-03-06T18:51:41.221Z,63.48
2023-03-06T18:54:12.125Z,61.50
2023-03-06T18:56:43.448Z,61.70
2023-03-06T18:59:17.530Z,62.34
2023-03-06T19:01:46.581Z,63.06
2023-03-06T19:04:13.821Z,63.86
2023-03-06T19:06:41.100Z,64.26
2023-03-06T19:09:07.601Z,64.47
2023-03-06T19:11:34.340Z,64.39
2023-03-06T19:14:01.218Z,64.31
2023-03-06T19:16:30.221Z,64.73
2023-03-06T19:18:58.699Z,64.60
2023-03-06T19:21:27.792Z,64.48
2023-03-06T19:23:56.642Z,64.76
2023-03-06T19:26:24.494Z,65.04
2023-03-06T19:28:54.822Z,65.13
2023-03-06T19:31:27.061Z,64.91
2023-03-06T19:33:56.274Z,65.29
2023-03-06T19:36:28.150Z,65.70
2023-03-06T19:38:58.138Z,66.30
2023-03-06T19:41:26.289Z,66.61
2023-03-06T19:43:57.870Z,66.41
2023-03-06T19:46:29.339Z,66.54
2023-03-06T19:49:00.010Z,66.76
2023-03-06T19:51:28.032Z,66.98
2023-03-06T19:53:56.964Z,67.36
2023-03-06T19:56:28.294Z,67.42
2023-03-06T19:58:55.685Z,67.00
2023-03-06T20:01:28.950Z,67.00
2023-03-06T20:04:00.413Z,67.06
2023-03-06T20:06:33.040Z,67.17
2023-03-06T20:09:02.937Z,67.41
2023-03-06T20:11:30.560Z,67.73
2023-03-06T20:14:00.997Z,68.22
2023-03-06T20:16:29.894Z,69.56
2023-03-06T20:18:59.668Z,71.58
2023-03-06T20:21:30.641Z,69.27
2023-03-06T20:23:58.147Z,68.22
2023-03-06T20:26:28.418Z,67.14
2023-03-06T20:28:56.144Z,66.44
2023-03-06T20:31:27.708Z,66.01
2023-03-06T20:33:58.942Z,66.29
2023-03-06T20:36:35.391Z,66.52
2023-03-06T20:39:08.378Z,66.85
2023-03-06T20:41:35.859Z,67.21
2023-03-06T20:44:06.584Z,67.81
2023-03-06T20:46:34.265Z,68.11
2023-03-06T20:49:01.669Z,68.32
2023-03-06T20:51:36.955Z,68.53
2023-03-06T20:54:04.423Z,68.59
2023-03-06T20:56:34.114Z,68.75
2023-03-06T20:59:01.263Z,68.69
2023-03-06T21:01:41.115Z,68.70
2023-03-06T21:04:10.624Z,68.55
2023-03-06T21:06:37.608Z,68.60
2023-03-06T21:09:06.422Z,68.87
2023-03-06T21:11:34.808Z,69.04
2023-03-06T21:14:02.436Z,69.00
2023-03-06T21:16:29.872Z,68.82
2023-03-06T21:18:59.231Z,68.42
2023-03-06T21:21:30.608Z,68.41
2023-03-06T21:23:57.217Z,68.38
2023-03-06T21:26:28.481Z,68.47
2023-03-06T21:28:59.136Z,68.93
2023-03-06T21:31:27.745Z,69.26
2023-03-06T21:33:54.721Z,69.75
2023-03-06T21:36:22.065Z,69.74
2023-03-06T21:38:50.682Z,69.45
2023-03-06T21:41:20.072Z,69.15
2023-03-06T21:43:47.033Z,68.89
2023-03-06T21:46:15.352Z,68.73
2023-03-06T21:48:49.093Z,68.54
2023-03-06T21:51:18.674Z,68.34
2023-03-06T21:53:47.793Z,68.26
2023-03-06T21:56:17.766Z,68.21
2023-03-06T21:58:45.258Z,68.11
2023-03-06T22:01:19.359Z,67.94
2023-03-06T22:03:46.239Z,67.86
2023-03-06T22:06:20.577Z,67.60
2023-03-06T22:08:47.040Z,67.44
2023-03-06T22:11:17.555Z,67.24
2023-03-06T22:13:44.600Z,67.30
2023-03-06T22:16:12.462Z,67.07
2023-03-06T22:18:39.658Z,66.99
2023-03-06T22:21:09.747Z,66.95
2023-03-06T22:23:36.410Z,66.47
2023-03-06T22:26:05.546Z,66.24
2023-03-06T22:28:32.172Z,66.18
2023-03-06T22:31:15.705Z,66.06
2023-03-06T22:33:42.930Z,66.12
2023-03-06T22:36:14.323Z,65.96
2023-03-06T22:38:43.972Z,65.74
2023-03-06T22:41:12.420Z,65.48
2023-03-06T22:43:39.112Z,65.38
2023-03-06T22:46:11.116Z,65.32
2023-03-06T22:48:37.761Z,65.14
2023-03-06T22:51:11.570Z,65.10
2023-03-06T22:53:39.334Z,65.17
2023-03-06T22:56:09.508Z,65.08
2023-03-06T22:58:37.497Z,65.07
2023-03-06T23:01:09.568Z,64.89
2023-03-06T23:03:38.933Z,65.14
2023-03-06T23:06:14.444Z,65.35
2023-03-06T23:08:41.850Z,65.50
2023-03-06T23:11:12.471Z,65.59
2023-03-06T23:13:39.406Z,65.62
2023-03-06T23:16:08.619Z,66.01
2023-03-06T23:18:37.036Z,66.39
2023-03-06T23:21:14.300Z,66.33
2023-03-06T23:23:40.975Z,66.86
2023-03-06T23:26:09.894Z,66.54
2023-03-06T23:28:36.663Z,66.63
2023-03-06T23:31:09.309Z,66.40
2023-03-06T23:33:38.106Z,66.22
2023-03-06T23:36:07.990Z,65.86
2023-03-06T23:38:35.004Z,65.40
2023-03-06T23:41:14.272Z,65.35
2023-03-06T23:43:41.451Z,65.53
2023-03-06T23:46:08.326Z,65.55
2023-03-06T23:48:37.529Z,65.41
2023-03-06T23:51:07.157Z,65.10
2023-03-06T23:53:34.624Z,64.32
2023-03-06T23:56:20.217Z,64.07
2023-03-06T23:58:47.559Z,64.20
